Terminal Aerodrome Forecast
Issued by NWS

Home | Current Version | Previous Version | Text Only | Print | Product List | Glossary On
Versions: 1 2 3 4 5 6 7 8 9 10 11 12 13 14 15 16
000
FTUS46 KLOX 251741
TAFVNY
TAF
KVNY 251741Z 2518/2618 14006KT P6SM SKC
     FM252100 16010G15KT P6SM SKC
     FM260100 13008KT P6SM SKC
     FM260500 VRB05KT P6SM SCT200=

USA.gov is the U.S. government's official web portal to all federal, state and local government web resources and services.